Time,TemperatureF,DewpointF,PressureIn,WindDirection,WindDirectionDegrees,WindSpeedMPH,WindSpeedGustMPH,Humidity,HourlyPrecipIn,Conditions,Clouds,dailyrainin,SoftwareType,DateUTC
2013-07-08 00:03:00,64.4,63.0,29.88,North,0,0.0,0.0,95,0.00,,,0.00,meteohub,2013-07-08 07:03:00,
2013-07-08 00:08:00,64.4,63.0,29.88,North,0,0.0,0.0,95,0.00,,,0.00,meteohub,2013-07-08 07:08:00,
2013-07-08 00:13:00,64.0,62.6,29.88,North,0,0.0,0.0,95,0.00,,,0.00,meteohub,2013-07-08 07:13:00,
2013-07-08 00:18:00,64.0,63.0,29.88,North,0,0.0,0.0,96,0.00,,,0.00,meteohub,2013-07-08 07:18:00,
2013-07-08 00:23:00,64.0,63.0,29.88,North,0,0.0,0.0,96,0.00,,,0.00,meteohub,2013-07-08 07:23:00,
2013-07-08 00:28:00,63.9,62.8,29.88,North,0,0.0,2.0,96,0.00,,,0.00,meteohub,2013-07-08 07:28:00,
2013-07-08 00:33:00,63.7,62.6,29.88,North,0,0.0,2.0,96,0.00,,,0.00,meteohub,2013-07-08 07:33:00,
2013-07-08 00:38:00,63.7,62.6,29.88,North,0,0.0,2.0,96,0.00,,,0.00,meteohub,2013-07-08 07:38:00,
2013-07-08 00:43:00,63.9,63.0,29.88,North,0,1.0,2.0,97,0.00,,,0.00,meteohub,2013-07-08 07:43:00,
2013-07-08 00:48:00,63.7,62.8,29.88,North,0,1.0,2.0,97,0.00,,,0.00,meteohub,2013-07-08 07:48:00,
2013-07-08 00:53:00,63.7,62.8,29.88,North,0,0.0,2.0,97,0.00,,,0.00,meteohub,2013-07-08 07:53:00,
2013-07-08 00:58:00,63.9,63.0,29.88,North,0,0.0,2.0,97,0.00,,,0.00,meteohub,2013-07-08 07:58:00,
2013-07-08 01:03:00,63.5,62.6,29.88,North,0,1.0,2.0,97,0.00,,,0.00,meteohub,2013-07-08 08:03:00,
2013-07-08 01:08:00,63.5,62.6,29.88,North,0,0.0,2.0,97,0.00,,,0.00,meteohub,2013-07-08 08:08:00,
2013-07-08 01:13:00,63.1,62.2,29.88,North,0,0.0,2.0,97,0.00,,,0.00,meteohub,2013-07-08 08:13:00,
2013-07-08 01:18:00,63.1,62.2,29.88,North,0,0.0,2.0,97,0.00,,,0.00,meteohub,2013-07-08 08:18:00,
2013-07-08 01:23:00,63.0,62.1,29.88,North,0,0.0,0.0,97,0.00,,,0.00,meteohub,2013-07-08 08:23:00,
2013-07-08 01:28:00,63.0,62.4,29.88,North,0,0.0,0.0,98,0.00,,,0.00,meteohub,2013-07-08 08:28:00,
2013-07-08 01:34:00,63.0,62.4,29.88,North,0,0.0,0.0,98,0.00,,,0.00,meteohub,2013-07-08 08:34:00,
2013-07-08 01:39:00,62.4,61.9,29.88,North,0,0.0,0.0,98,0.00,,,0.00,meteohub,2013-07-08 08:39:00,
2013-07-08 01:44:00,62.4,61.9,29.88,North,0,0.0,0.0,98,0.00,,,0.00,meteohub,2013-07-08 08:44:00,
2013-07-08 01:49:00,62.4,61.9,29.88,North,0,0.0,0.0,98,0.00,,,0.00,meteohub,2013-07-08 08:49:00,
2013-07-08 01:54:00,62.4,62.1,29.88,North,0,0.0,0.0,99,0.00,,,0.00,meteohub,2013-07-08 08:54:00,
2013-07-08 01:59:00,62.8,62.4,29.88,North,0,0.0,0.0,99,0.00,,,0.00,meteohub,2013-07-08 08:59:00,
2013-07-08 02:04:00,63.1,62.8,29.88,North,0,0.0,0.0,99,0.00,,,0.00,meteohub,2013-07-08 09:04:00,
2013-07-08 02:09:00,63.0,62.6,29.88,North,0,0.0,0.0,99,0.00,,,0.00,meteohub,2013-07-08 09:09:00,
2013-07-08 02:14:00,63.0,62.6,29.88,North,0,0.0,0.0,99,0.00,,,0.00,meteohub,2013-07-08 09:14:00,
2013-07-08 02:19:00,63.0,62.6,29.88,North,0,0.0,0.0,99,0.00,,,0.00,meteohub,2013-07-08 09:19:00,
2013-07-08 02:24:00,62.8,62.4,29.88,North,0,0.0,0.0,99,0.00,,,0.00,meteohub,2013-07-08 09:24:00,
2013-07-08 02:29:00,62.6,62.2,29.88,North,0,0.0,0.0,99,0.00,,,0.00,meteohub,2013-07-08 09:29:00,
2013-07-08 02:34:00,62.2,61.9,29.88,North,0,0.0,0.0,99,0.00,,,0.00,meteohub,2013-07-08 09:34:00,
2013-07-08 02:39:00,62.2,61.9,29.88,North,0,0.0,0.0,99,0.00,,,0.00,meteohub,2013-07-08 09:39:00,
2013-07-08 02:44:00,62.2,61.9,29.88,North,0,0.0,0.0,99,0.00,,,0.00,meteohub,2013-07-08 09:44:00,
2013-07-08 02:49:00,62.2,61.9,29.88,North,0,0.0,0.0,99,0.00,,,0.00,meteohub,2013-07-08 09:49:00,
2013-07-08 02:54:00,62.1,61.7,29.87,North,0,0.0,0.0,99,0.00,,,0.00,meteohub,2013-07-08 09:54:00,
2013-07-08 02:59:00,62.1,61.7,29.88,North,0,0.0,0.0,99,0.00,,,0.00,meteohub,2013-07-08 09:59:00,
2013-07-08 03:04:00,62.1,61.7,29.87,North,0,0.0,0.0,99,0.00,,,0.00,meteohub,2013-07-08 10:04:00,
2013-07-08 03:09:00,62.1,61.7,29.87,North,0,0.0,0.0,99,0.00,,,0.00,meteohub,2013-07-08 10:09:00,
2013-07-08 03:14:00,61.9,61.5,29.87,North,0,0.0,0.0,99,0.00,,,0.00,meteohub,2013-07-08 10:14:00,
2013-07-08 03:19:00,61.9,61.5,29.87,North,0,0.0,0.0,99,0.00,,,0.00,meteohub,2013-07-08 10:19:00,
2013-07-08 03:24:00,61.7,61.3,29.87,North,0,0.0,0.0,99,0.00,,,0.00,meteohub,2013-07-08 10:24:00,
2013-07-08 03:29:00,61.5,61.2,29.87,North,0,0.0,0.0,99,0.00,,,0.00,meteohub,2013-07-08 10:29:00,
2013-07-08 03:34:00,61.5,61.2,29.87,North,0,0.0,0.0,99,0.00,,,0.00,meteohub,2013-07-08 10:34:00,
2013-07-08 03:39:00,61.7,61.3,29.87,North,0,0.0,0.0,99,0.00,,,0.00,meteohub,2013-07-08 10:39:00,
2013-07-08 03:44:00,61.5,61.2,29.87,North,0,0.0,0.0,99,0.00,,,0.00,meteohub,2013-07-08 10:44:00,
2013-07-08 03:49:00,61.7,61.3,29.87,North,0,0.0,0.0,99,0.00,,,0.00,meteohub,2013-07-08 10:49:00,
2013-07-08 03:54:00,61.9,61.5,29.87,North,0,0.0,0.0,99,0.00,,,0.00,meteohub,2013-07-08 10:54:00,
2013-07-08 03:59:00,61.5,61.2,29.87,North,0,0.0,0.0,99,0.00,,,0.00,meteohub,2013-07-08 10:59:00,
2013-07-08 04:04:00,61.5,61.2,29.87,North,0,0.0,0.0,99,0.00,,,0.00,meteohub,2013-07-08 11:04:00,
2013-07-08 04:09:00,61.3,61.0,29.88,North,0,0.0,0.0,99,0.00,,,0.00,meteohub,2013-07-08 11:09:00,
2013-07-08 04:14:00,61.3,61.0,29.87,North,0,0.0,0.0,99,0.00,,,0.00,meteohub,2013-07-08 11:14:00,
2013-07-08 04:19:00,61.0,60.6,29.87,North,0,0.0,0.0,99,0.00,,,0.00,meteohub,2013-07-08 11:19:00,
2013-07-08 04:24:00,61.0,60.6,29.88,North,0,0.0,0.0,99,0.00,,,0.00,meteohub,2013-07-08 11:24:00,
2013-07-08 04:29:00,61.2,60.8,29.88,North,0,0.0,0.0,99,0.00,,,0.00,meteohub,2013-07-08 11:29:00,
2013-07-08 04:35:00,61.0,60.6,29.88,North,0,0.0,0.0,99,0.00,,,0.00,meteohub,2013-07-08 11:35:00,
2013-07-08 04:40:00,60.8,60.4,29.88,North,0,0.0,0.0,99,0.00,,,0.00,meteohub,2013-07-08 11:40:00,
2013-07-08 04:45:00,60.8,60.4,29.88,North,0,0.0,0.0,99,0.00,,,0.00,meteohub,2013-07-08 11:45:00,
2013-07-08 04:50:00,60.4,60.1,29.88,North,0,0.0,0.0,99,0.00,,,0.00,meteohub,2013-07-08 11:50:00,
2013-07-08 04:55:00,60.4,60.1,29.88,North,0,0.0,0.0,99,0.00,,,0.00,meteohub,2013-07-08 11:55:00,
2013-07-08 05:00:00,60.3,59.9,29.88,North,0,0.0,0.0,99,0.00,,,0.00,meteohub,2013-07-08 12:00:00,
2013-07-08 05:05:00,60.3,59.9,29.88,North,0,0.0,0.0,99,0.00,,,0.00,meteohub,2013-07-08 12:05:00,
2013-07-08 05:10:00,60.8,60.4,29.88,North,0,0.0,0.0,99,0.00,,,0.00,meteohub,2013-07-08 12:10:00,
2013-07-08 05:15:00,61.0,60.6,29.88,North,0,0.0,0.0,99,0.00,,,0.00,meteohub,2013-07-08 12:15:00,
2013-07-08 05:20:00,61.0,60.6,29.88,North,0,0.0,0.0,99,0.00,,,0.00,meteohub,2013-07-08 12:20:00,
2013-07-08 05:25:00,61.0,60.6,29.88,North,0,0.0,0.0,99,0.00,,,0.00,meteohub,2013-07-08 12:25:00,
2013-07-08 05:30:00,60.8,60.4,29.88,North,0,0.0,0.0,99,0.00,,,0.00,meteohub,2013-07-08 12:30:00,
2013-07-08 05:35:00,60.6,60.3,29.88,North,0,0.0,0.0,99,0.00,,,0.00,meteohub,2013-07-08 12:35:00,
2013-07-08 05:40:00,60.8,60.4,29.88,North,0,0.0,0.0,99,0.00,,,0.00,meteohub,2013-07-08 12:40:00,
2013-07-08 05:45:00,60.8,60.4,29.89,North,0,0.0,0.0,99,0.00,,,0.00,meteohub,2013-07-08 12:45:00,
2013-07-08 05:50:00,61.0,60.6,29.89,North,0,0.0,0.0,99,0.00,,,0.00,meteohub,2013-07-08 12:50:00,
2013-07-08 05:55:00,61.0,60.6,29.88,North,0,2.0,0.0,99,0.00,,,0.00,meteohub,2013-07-08 12:55:00,
2013-07-08 06:00:00,61.2,60.8,29.89,North,0,0.0,2.0,99,0.00,,,0.00,meteohub,2013-07-08 13:00:00,
2013-07-08 06:05:00,61.3,61.0,29.89,North,0,0.0,2.0,99,0.00,,,0.00,meteohub,2013-07-08 13:05:00,
2013-07-08 06:10:00,61.3,61.0,29.89,North,0,0.0,2.0,99,0.00,,,0.00,meteohub,2013-07-08 13:10:00,
2013-07-08 06:15:00,61.5,61.2,29.89,North,0,0.0,2.0,99,0.00,,,0.00,meteohub,2013-07-08 13:15:00,
2013-07-08 06:20:00,61.5,61.2,29.89,North,0,0.0,0.0,99,0.00,,,0.00,meteohub,2013-07-08 13:20:00,
2013-07-08 06:25:00,62.1,61.7,29.89,North,0,0.0,0.0,99,0.00,,,0.00,meteohub,2013-07-08 13:25:00,
2013-07-08 06:30:00,63.7,63.3,29.89,North,0,0.0,0.0,99,0.00,,,0.00,meteohub,2013-07-08 13:30:00,
2013-07-08 06:35:00,64.8,64.4,29.90,North,0,0.0,0.0,99,0.00,,,0.00,meteohub,2013-07-08 13:35:00,
2013-07-08 06:40:00,65.8,65.5,29.89,North,0,0.0,0.0,99,0.00,,,0.00,meteohub,2013-07-08 13:40:00,
2013-07-08 06:45:00,66.4,66.0,29.89,North,0,0.0,2.0,99,0.00,,,0.00,meteohub,2013-07-08 13:45:00,
2013-07-08 06:50:00,67.6,67.3,29.90,North,0,1.0,2.0,99,0.00,,,0.00,meteohub,2013-07-08 13:50:00,
2013-07-08 06:55:00,68.7,68.2,29.90,North,0,0.0,2.0,98,0.00,,,0.00,meteohub,2013-07-08 13:55:00,
2013-07-08 07:00:00,70.2,68.0,29.90,North,0,1.0,2.0,93,0.00,,,0.00,meteohub,2013-07-08 14:00:00,
2013-07-08 07:05:00,71.2,67.5,29.90,North,0,1.0,3.0,88,0.00,,,0.00,meteohub,2013-07-08 14:05:00,
2013-07-08 07:10:00,72.1,67.6,29.90,North,0,2.0,3.0,86,0.00,,,0.00,meteohub,2013-07-08 14:10:00,
2013-07-08 07:15:00,73.4,68.0,29.91,North,0,1.0,3.0,83,0.00,,,0.00,meteohub,2013-07-08 14:15:00,
2013-07-08 07:20:00,75.2,68.2,29.91,North,0,0.0,3.0,79,0.00,,,0.00,meteohub,2013-07-08 14:20:00,
2013-07-08 07:25:00,76.6,68.9,29.91,North,0,2.0,3.0,77,0.00,,,0.00,meteohub,2013-07-08 14:25:00,
2013-07-08 07:30:00,77.2,67.5,29.91,North,0,0.0,2.0,72,0.00,,,0.00,meteohub,2013-07-08 14:30:00,
2013-07-08 07:35:00,75.9,65.5,29.91,North,0,2.0,2.0,70,0.00,,,0.00,meteohub,2013-07-08 14:35:00,
2013-07-08 07:40:00,75.7,65.7,29.91,North,0,2.0,3.0,71,0.00,,,0.00,meteohub,2013-07-08 14:40:00,
2013-07-08 07:45:00,77.0,66.0,29.92,North,0,2.0,3.0,69,0.00,,,0.00,meteohub,2013-07-08 14:45:00,
2013-07-08 07:51:00,77.9,66.0,29.91,North,0,3.0,3.0,67,0.00,,,0.00,meteohub,2013-07-08 14:51:00,
2013-07-08 07:55:00,77.9,66.6,29.91,North,0,0.0,3.0,68,0.00,,,0.00,meteohub,2013-07-08 14:55:00,
2013-07-08 08:01:00,79.0,66.6,29.91,North,0,2.0,3.0,66,0.00,,,0.00,meteohub,2013-07-08 15:01:00,
2013-07-08 08:06:00,80.1,66.7,29.91,North,0,1.0,3.0,64,0.00,,,0.00,meteohub,2013-07-08 15:06:00,
2013-07-08 08:11:00,77.9,63.9,29.92,NW,315,3.0,4.0,62,0.00,,,0.00,meteohub,2013-07-08 15:11:00,
2013-07-08 08:16:00,77.9,66.0,29.92,NW,315,2.0,4.0,67,0.00,,,0.00,meteohub,2013-07-08 15:16:00,
2013-07-08 08:21:00,77.2,64.6,29.92,West,270,3.0,4.0,65,0.00,,,0.00,meteohub,2013-07-08 15:21:00,
2013-07-08 08:26:00,76.8,64.9,29.92,West,270,4.0,4.0,67,0.00,,,0.00,meteohub,2013-07-08 15:26:00,
2013-07-08 08:31:00,77.2,65.8,29.92,WNW,293,3.0,4.0,68,0.00,,,0.00,meteohub,2013-07-08 15:31:00,
2013-07-08 08:36:00,76.6,64.9,29.92,NW,315,4.0,5.0,67,0.00,,,0.00,meteohub,2013-07-08 15:36:00,
2013-07-08 08:41:00,77.4,66.0,29.92,North,0,4.0,5.0,68,0.00,,,0.00,meteohub,2013-07-08 15:41:00,
2013-07-08 08:46:00,77.0,66.0,29.92,West,270,4.0,5.0,69,0.00,,,0.00,meteohub,2013-07-08 15:46:00,
2013-07-08 08:51:00,75.7,66.0,29.92,West,270,4.0,8.0,72,0.00,,,0.00,meteohub,2013-07-08 15:51:00,
2013-07-08 08:56:00,75.9,66.2,29.92,WSW,248,3.0,8.0,72,0.00,,,0.00,meteohub,2013-07-08 15:56:00,
2013-07-08 09:01:00,75.7,65.7,29.92,West,270,4.0,8.0,71,0.00,,,0.00,meteohub,2013-07-08 16:01:00,
2013-07-08 09:06:00,75.6,65.8,29.93,NW,315,6.0,7.0,72,0.00,,,0.00,meteohub,2013-07-08 16:06:00,
2013-07-08 09:11:00,76.3,66.6,29.92,West,270,6.0,7.0,72,0.00,,,0.00,meteohub,2013-07-08 16:11:00,
2013-07-08 09:16:00,75.9,66.2,29.92,NW,315,4.0,8.0,72,0.00,,,0.00,meteohub,2013-07-08 16:16:00,
2013-07-08 09:21:00,76.5,66.0,29.92,NW,315,6.0,8.0,70,0.00,,,0.00,meteohub,2013-07-08 16:21:00,
2013-07-08 09:26:00,75.7,65.7,29.93,NW,315,8.0,8.0,71,0.00,,,0.00,meteohub,2013-07-08 16:26:00,
2013-07-08 09:31:00,75.4,65.7,29.93,West,270,8.0,8.0,72,0.00,,,0.00,meteohub,2013-07-08 16:31:00,
2013-07-08 09:36:00,75.4,65.7,29.93,WNW,293,10.0,10.0,72,0.00,,,0.00,meteohub,2013-07-08 16:36:00,
2013-07-08 09:41:00,75.0,65.8,29.93,West,270,7.0,10.0,73,0.00,,,0.00,meteohub,2013-07-08 16:41:00,
2013-07-08 09:46:00,75.2,66.4,29.93,West,270,8.0,10.0,74,0.00,,,0.00,meteohub,2013-07-08 16:46:00,
2013-07-08 09:51:00,74.7,65.8,29.93,WNW,293,8.0,10.0,74,0.00,,,0.00,meteohub,2013-07-08 16:51:00,
2013-07-08 09:56:00,75.2,66.4,29.93,West,270,8.0,9.0,74,0.00,,,0.00,meteohub,2013-07-08 16:56:00,
2013-07-08 10:01:00,74.7,66.6,29.94,West,270,9.0,11.0,76,0.00,,,0.00,meteohub,2013-07-08 17:01:00,
2013-07-08 10:06:00,74.5,66.0,29.94,NW,315,11.0,11.0,75,0.00,,,0.00,meteohub,2013-07-08 17:06:00,
2013-07-08 10:11:00,73.6,66.4,29.94,West,270,11.0,12.0,78,0.00,,,0.00,meteohub,2013-07-08 17:11:00,
2013-07-08 10:17:00,73.8,66.4,29.94,West,270,12.0,12.0,78,0.00,,,0.00,meteohub,2013-07-08 17:17:00,
2013-07-08 10:22:00,73.8,66.0,29.94,NW,315,13.0,13.0,77,0.00,,,0.00,meteohub,2013-07-08 17:22:00,
2013-07-08 10:27:00,73.2,66.4,29.94,NW,315,8.0,13.0,79,0.00,,,0.00,meteohub,2013-07-08 17:27:00,
2013-07-08 10:32:00,73.9,66.2,29.94,West,270,5.0,13.0,77,0.00,,,0.00,meteohub,2013-07-08 17:32:00,
2013-07-08 10:37:00,73.9,66.2,29.94,WNW,293,9.0,13.0,77,0.00,,,0.00,meteohub,2013-07-08 17:37:00,
2013-07-08 10:42:00,74.3,66.6,29.94,West,270,4.0,11.0,77,0.00,,,0.00,meteohub,2013-07-08 17:42:00,
2013-07-08 10:47:00,75.0,66.6,29.94,NW,315,6.0,11.0,75,0.00,,,0.00,meteohub,2013-07-08 17:47:00,
2013-07-08 10:52:00,75.2,66.7,29.94,NW,315,8.0,11.0,75,0.00,,,0.00,meteohub,2013-07-08 17:52:00,
2013-07-08 10:57:00,75.7,66.4,29.94,WNW,293,11.0,11.0,73,0.00,,,0.00,meteohub,2013-07-08 17:57:00,
2013-07-08 11:02:00,75.2,66.4,29.94,NW,315,8.0,11.0,74,0.00,,,0.00,meteohub,2013-07-08 18:02:00,
2013-07-08 11:07:00,75.9,66.6,29.94,NW,315,8.0,11.0,73,0.00,,,0.00,meteohub,2013-07-08 18:07:00,
2013-07-08 11:12:00,75.4,66.2,29.94,NW,315,8.0,11.0,73,0.00,,,0.00,meteohub,2013-07-08 18:12:00,
2013-07-08 11:17:00,75.6,66.4,29.94,North,0,9.0,11.0,73,0.00,,,0.00,meteohub,2013-07-08 18:17:00,
2013-07-08 11:24:00,75.6,66.7,29.94,NW,315,6.0,11.0,74,0.00,,,0.00,meteohub,2013-07-08 18:24:00,
2013-07-08 11:29:00,76.3,66.9,29.94,NW,315,11.0,11.0,73,0.00,,,0.00,meteohub,2013-07-08 18:29:00,
2013-07-08 11:35:00,77.0,66.9,29.94,NW,315,6.0,11.0,71,0.00,,,0.00,meteohub,2013-07-08 18:35:00,
2013-07-08 11:40:00,77.0,66.9,29.93,West,270,10.0,11.0,71,0.00,,,0.00,meteohub,2013-07-08 18:40:00,
2013-07-08 11:46:00,76.6,66.6,29.93,West,270,8.0,10.0,71,0.00,,,0.00,meteohub,2013-07-08 18:46:00,
2013-07-08 11:51:00,77.0,67.3,29.93,West,270,7.0,10.0,72,0.00,,,0.00,meteohub,2013-07-08 18:51:00,
2013-07-08 11:57:00,77.5,66.9,29.93,WNW,293,6.0,10.0,70,0.00,,,0.00,meteohub,2013-07-08 18:57:00,
2013-07-08 12:02:00,77.9,67.8,29.93,WNW,293,7.0,11.0,71,0.00,,,0.00,meteohub,2013-07-08 19:02:00,
2013-07-08 12:07:00,78.1,67.5,29.93,West,270,8.0,11.0,70,0.00,,,0.00,meteohub,2013-07-08 19:07:00,
2013-07-08 12:12:00,77.9,66.9,29.92,West,270,8.0,11.0,69,0.00,,,0.00,meteohub,2013-07-08 19:12:00,
2013-07-08 12:17:00,77.2,67.5,29.92,WNW,293,7.0,11.0,72,0.00,,,0.00,meteohub,2013-07-08 19:17:00,
2013-07-08 12:23:00,77.2,67.1,29.92,West,270,7.0,11.0,71,0.00,,,0.00,meteohub,2013-07-08 19:23:00,
2013-07-08 12:28:00,77.7,67.6,29.91,West,270,3.0,11.0,71,0.00,,,0.00,meteohub,2013-07-08 19:28:00,
2013-07-08 12:33:00,78.8,66.9,29.91,West,270,6.0,11.0,67,0.00,,,0.00,meteohub,2013-07-08 19:33:00,
2013-07-08 12:39:00,78.4,66.9,29.91,West,270,6.0,10.0,68,0.00,,,0.00,meteohub,2013-07-08 19:39:00,
2013-07-08 12:44:00,78.1,67.1,29.91,NW,315,9.0,10.0,69,0.00,,,0.00,meteohub,2013-07-08 19:44:00,
2013-07-08 12:50:00,78.4,66.9,29.91,West,270,6.0,10.0,68,0.00,,,0.00,meteohub,2013-07-08 19:50:00,
2013-07-08 12:55:00,78.4,67.5,29.91,WSW,248,5.0,10.0,69,0.00,,,0.00,meteohub,2013-07-08 19:55:00,
2013-07-08 13:01:00,78.4,67.5,29.91,NW,315,8.0,10.0,69,0.00,,,0.00,meteohub,2013-07-08 20:01:00,
2013-07-08 13:06:00,79.3,67.8,29.91,South,180,6.0,11.0,68,0.00,,,0.00,meteohub,2013-07-08 20:06:00,
2013-07-08 13:11:00,80.1,67.3,29.91,WNW,293,11.0,11.0,65,0.00,,,0.00,meteohub,2013-07-08 20:11:00,
2013-07-08 13:16:00,80.2,67.5,29.91,NW,315,5.0,11.0,65,0.00,,,0.00,meteohub,2013-07-08 20:16:00,
2013-07-08 13:22:00,80.6,66.9,29.90,West,270,8.0,11.0,63,0.00,,,0.00,meteohub,2013-07-08 20:22:00,
2013-07-08 13:27:00,81.1,66.9,29.90,WNW,293,7.0,11.0,62,0.00,,,0.00,meteohub,2013-07-08 20:27:00,
2013-07-08 13:32:00,81.7,66.9,29.90,West,270,8.0,11.0,61,0.00,,,0.00,meteohub,2013-07-08 20:32:00,
2013-07-08 13:37:00,82.4,66.2,29.90,West,270,5.0,8.0,58,0.00,,,0.00,meteohub,2013-07-08 20:37:00,
2013-07-08 13:42:00,82.9,66.6,29.89,NW,315,10.0,10.0,58,0.00,,,0.00,meteohub,2013-07-08 20:42:00,
2013-07-08 13:47:00,83.1,66.7,29.90,NW,315,7.0,10.0,58,0.00,,,0.00,meteohub,2013-07-08 20:47:00,
2013-07-08 13:53:00,83.3,66.9,29.90,West,270,8.0,10.0,58,0.00,,,0.00,meteohub,2013-07-08 20:53:00,
2013-07-08 13:58:00,83.1,67.3,29.90,West,270,5.0,10.0,59,0.00,,,0.00,meteohub,2013-07-08 20:58:00,
2013-07-08 14:04:00,83.3,66.9,29.89,West,270,7.0,10.0,58,0.00,,,0.00,meteohub,2013-07-08 21:04:00,
2013-07-08 14:09:00,84.7,67.3,29.89,WNW,293,5.0,10.0,56,0.00,,,0.00,meteohub,2013-07-08 21:09:00,
2013-07-08 14:15:00,85.3,66.7,29.89,WNW,293,11.0,11.0,54,0.00,,,0.00,meteohub,2013-07-08 21:15:00,
2013-07-08 14:20:00,84.6,67.1,29.89,West,270,9.0,11.0,56,0.00,,,0.00,meteohub,2013-07-08 21:20:00,
2013-07-08 14:26:00,84.0,67.1,29.89,NW,315,11.0,13.0,57,0.00,,,0.00,meteohub,2013-07-08 21:26:00,
2013-07-08 14:31:00,84.6,66.6,29.89,NW,315,8.0,13.0,55,0.00,,,0.00,meteohub,2013-07-08 21:31:00,
2013-07-08 14:37:00,84.2,66.7,29.89,West,270,11.0,13.0,56,0.00,,,0.00,meteohub,2013-07-08 21:37:00,
2013-07-08 14:42:00,84.0,66.2,29.89,NW,315,11.0,11.0,55,0.00,,,0.00,meteohub,2013-07-08 21:42:00,
2013-07-08 14:47:00,84.2,66.7,29.88,West,270,8.0,11.0,56,0.00,,,0.00,meteohub,2013-07-08 21:47:00,
2013-07-08 14:52:00,84.7,66.7,29.88,NNW,338,12.0,12.0,55,0.00,,,0.00,meteohub,2013-07-08 21:52:00,
2013-07-08 14:57:00,84.7,66.7,29.88,WNW,293,8.0,14.0,55,0.00,,,0.00,meteohub,2013-07-08 21:57:00,
2013-07-08 15:02:00,84.9,65.8,29.88,West,270,8.0,14.0,53,0.00,,,0.00,meteohub,2013-07-08 22:02:00,
2013-07-08 15:07:00,86.0,65.1,29.88,NW,315,7.0,14.0,50,0.00,,,0.00,meteohub,2013-07-08 22:07:00,
2013-07-08 15:12:00,87.4,60.8,29.88,North,0,3.0,11.0,41,0.00,,,0.00,meteohub,2013-07-08 22:12:00,
2013-07-08 15:18:00,89.1,57.9,29.88,North,0,7.0,11.0,35,0.00,,,0.00,meteohub,2013-07-08 22:18:00,
2013-07-08 15:24:00,89.8,55.0,29.88,NE,45,5.0,11.0,31,0.00,,,0.00,meteohub,2013-07-08 22:24:00,
2013-07-08 15:29:00,90.5,56.7,29.88,North,0,5.0,11.0,32,0.00,,,0.00,meteohub,2013-07-08 22:29:00,
2013-07-08 15:35:00,91.0,57.9,29.88,NW,315,5.0,10.0,33,0.00,,,0.00,meteohub,2013-07-08 22:35:00,
2013-07-08 15:40:00,90.9,59.4,29.88,North,0,7.0,10.0,35,0.00,,,0.00,meteohub,2013-07-08 22:40:00,
2013-07-08 15:45:00,90.9,59.4,29.88,North,0,6.0,8.0,35,0.00,,,0.00,meteohub,2013-07-08 22:45:00,
2013-07-08 15:50:00,90.7,58.5,29.88,North,0,4.0,8.0,34,0.00,,,0.00,meteohub,2013-07-08 22:50:00,
2013-07-08 15:56:00,89.1,59.4,29.87,NE,45,8.0,11.0,37,0.00,,,0.00,meteohub,2013-07-08 22:56:00,
2013-07-08 16:01:00,88.7,59.0,29.87,North,0,7.0,11.0,37,0.00,,,0.00,meteohub,2013-07-08 23:01:00,
2013-07-08 16:06:00,88.9,59.2,29.87,NW,315,6.0,11.0,37,0.00,,,0.00,meteohub,2013-07-08 23:06:00,
2013-07-08 16:12:00,89.2,54.7,29.87,North,0,10.0,10.0,31,0.00,,,0.00,meteohub,2013-07-08 23:12:00,
2013-07-08 16:17:00,87.8,56.7,29.87,NW,315,5.0,10.0,35,0.00,,,0.00,meteohub,2013-07-08 23:17:00,
2013-07-08 16:22:00,88.0,57.7,29.86,North,0,7.0,11.0,36,0.00,,,0.00,meteohub,2013-07-08 23:22:00,
2013-07-08 16:27:00,88.3,57.2,29.86,NNE,23,6.0,11.0,35,0.00,,,0.00,meteohub,2013-07-08 23:27:00,
2013-07-08 16:33:00,88.3,57.2,29.86,NW,315,7.0,11.0,35,0.00,,,0.00,meteohub,2013-07-08 23:33:00,
2013-07-08 16:38:00,88.2,56.3,29.86,NW,315,6.0,11.0,34,0.00,,,0.00,meteohub,2013-07-08 23:38:00,
2013-07-08 16:43:00,88.3,57.2,29.86,NW,315,7.0,9.0,35,0.00,,,0.00,meteohub,2013-07-08 23:43:00,
2013-07-08 16:48:00,88.5,58.1,29.86,West,270,5.0,9.0,36,0.00,,,0.00,meteohub,2013-07-08 23:48:00,
2013-07-08 16:54:00,88.7,57.6,29.86,East,90,5.0,9.0,35,0.00,,,0.00,meteohub,2013-07-08 23:54:00,
2013-07-08 16:59:00,88.5,59.0,29.86,West,270,7.0,8.0,37,0.00,,,0.00,meteohub,2013-07-08 23:59:00,
2013-07-08 17:04:00,88.0,59.9,29.86,NE,45,4.0,8.0,39,0.00,,,0.00,meteohub,2013-07-09 00:04:00,
2013-07-08 17:09:00,88.2,60.8,29.86,NE,45,3.0,9.0,40,0.00,,,0.00,meteohub,2013-07-09 00:09:00,
2013-07-08 17:14:00,88.5,59.7,29.86,NE,45,6.0,9.0,38,0.00,,,0.00,meteohub,2013-07-09 00:14:00,
2013-07-08 17:20:00,87.8,59.0,29.85,NE,45,7.0,9.0,38,0.00,,,0.00,meteohub,2013-07-09 00:20:00,
2013-07-08 17:25:00,86.9,59.7,29.86,NE,45,6.0,8.0,40,0.00,,,0.00,meteohub,2013-07-09 00:25:00,
2013-07-08 17:30:00,86.5,60.1,29.86,East,90,4.0,8.0,41,0.00,,,0.00,meteohub,2013-07-09 00:30:00,
2013-07-08 17:36:00,86.9,60.4,29.85,North,0,5.0,8.0,41,0.00,,,0.00,meteohub,2013-07-09 00:36:00,
2013-07-08 17:41:00,86.5,60.1,29.85,NE,45,7.0,9.0,41,0.00,,,0.00,meteohub,2013-07-09 00:41:00,
2013-07-08 17:47:00,85.1,60.1,29.86,NE,45,7.0,9.0,43,0.00,,,0.00,meteohub,2013-07-09 00:47:00,
2013-07-08 17:52:00,85.1,59.4,29.85,NE,45,4.0,9.0,42,0.00,,,0.00,meteohub,2013-07-09 00:52:00,
2013-07-08 17:57:00,85.5,59.7,29.85,NNE,23,5.0,9.0,42,0.00,,,0.00,meteohub,2013-07-09 00:57:00,
2013-07-08 18:02:00,84.9,59.2,29.86,WNW,293,6.0,8.0,42,0.00,,,0.00,meteohub,2013-07-09 01:02:00,
2013-07-08 18:07:00,84.4,59.4,29.85,NNE,23,8.0,8.0,43,0.00,,,0.00,meteohub,2013-07-09 01:07:00,
2013-07-08 18:13:00,84.2,57.9,29.85,ENE,68,6.0,8.0,41,0.00,,,0.00,meteohub,2013-07-09 01:13:00,
2013-07-08 18:18:00,83.7,58.8,29.85,North,0,7.0,8.0,43,0.00,,,0.00,meteohub,2013-07-09 01:18:00,
2013-07-08 18:24:00,83.7,58.8,29.85,East,90,4.0,8.0,43,0.00,,,0.00,meteohub,2013-07-09 01:24:00,
2013-07-08 18:29:00,83.8,58.3,29.86,NNE,23,5.0,8.0,42,0.00,,,0.00,meteohub,2013-07-09 01:29:00,
2013-07-08 18:34:00,83.5,59.4,29.86,NE,45,6.0,8.0,44,0.00,,,0.00,meteohub,2013-07-09 01:34:00,
2013-07-08 18:39:00,82.9,59.4,29.86,East,90,3.0,6.0,45,0.00,,,0.00,meteohub,2013-07-09 01:39:00,
2013-07-08 18:45:00,82.4,59.5,29.86,NNE,23,7.0,7.0,46,0.00,,,0.00,meteohub,2013-07-09 01:45:00,
2013-07-08 18:50:00,82.0,59.2,29.86,North,0,4.0,6.0,46,0.00,,,0.00,meteohub,2013-07-09 01:50:00,
2013-07-08 18:55:00,81.5,59.9,29.86,North,0,3.0,7.0,48,0.00,,,0.00,meteohub,2013-07-09 01:55:00,
2013-07-08 19:01:00,81.1,60.8,29.86,NNE,23,4.0,5.0,50,0.00,,,0.00,meteohub,2013-07-09 02:01:00,
2013-07-08 19:06:00,81.1,60.8,29.86,NE,45,5.0,5.0,50,0.00,,,0.00,meteohub,2013-07-09 02:06:00,
2013-07-08 19:11:00,81.0,61.2,29.86,North,0,4.0,5.0,51,0.00,,,0.00,meteohub,2013-07-09 02:11:00,
2013-07-08 19:16:00,80.6,61.3,29.86,NNE,23,3.0,5.0,52,0.00,,,0.00,meteohub,2013-07-09 02:16:00,
2013-07-08 19:22:00,80.1,60.8,29.87,NE,45,3.0,5.0,52,0.00,,,0.00,meteohub,2013-07-09 02:22:00,
2013-07-08 19:27:00,79.7,61.0,29.87,North,0,4.0,5.0,53,0.00,,,0.00,meteohub,2013-07-09 02:27:00,
2013-07-08 19:32:00,79.2,61.5,29.87,North,0,4.0,5.0,55,0.00,,,0.00,meteohub,2013-07-09 02:32:00,
2013-07-08 19:37:00,78.8,61.7,29.87,NNE,23,4.0,5.0,56,0.00,,,0.00,meteohub,2013-07-09 02:37:00,
2013-07-08 19:42:00,78.4,61.9,29.87,North,0,4.0,5.0,57,0.00,,,0.00,meteohub,2013-07-09 02:42:00,
2013-07-08 19:48:00,77.7,62.2,29.88,West,270,4.0,4.0,59,0.00,,,0.00,meteohub,2013-07-09 02:48:00,
2013-07-08 19:53:00,76.5,62.4,29.88,North,0,2.0,4.0,62,0.00,,,0.00,meteohub,2013-07-09 02:53:00,
2013-07-08 19:58:00,75.6,62.1,29.88,NE,45,2.0,4.0,63,0.00,,,0.00,meteohub,2013-07-09 02:58:00,
2013-07-08 20:03:00,74.8,64.8,29.88,NW,315,3.0,4.0,71,0.00,,,0.00,meteohub,2013-07-09 03:03:00,
2013-07-08 20:08:00,73.9,64.8,29.88,NW,315,3.0,4.0,73,0.00,,,0.00,meteohub,2013-07-09 03:08:00,
2013-07-08 20:14:00,73.4,64.9,29.88,NW,315,0.0,4.0,75,0.00,,,0.00,meteohub,2013-07-09 03:14:00,
2013-07-08 20:19:00,72.9,64.0,29.88,NW,315,0.0,4.0,74,0.00,,,0.00,meteohub,2013-07-09 03:19:00,
2013-07-08 20:24:00,72.5,64.6,29.88,NW,315,2.0,4.0,76,0.00,,,0.00,meteohub,2013-07-09 03:24:00,
2013-07-08 20:29:00,72.1,64.2,29.88,NW,315,3.0,4.0,76,0.00,,,0.00,meteohub,2013-07-09 03:29:00,
2013-07-08 20:35:00,71.6,63.0,29.89,NE,45,2.0,6.0,74,0.00,,,0.00,meteohub,2013-07-09 03:35:00,
2013-07-08 20:41:00,71.4,62.8,29.89,NE,45,3.0,6.0,74,0.00,,,0.00,meteohub,2013-07-09 03:41:00,
2013-07-08 20:46:00,71.2,62.6,29.89,NE,45,3.0,6.0,74,0.00,,,0.00,meteohub,2013-07-09 03:46:00,
2013-07-08 20:51:00,71.1,62.4,29.90,NE,45,2.0,4.0,74,0.00,,,0.00,meteohub,2013-07-09 03:51:00,
2013-07-08 20:56:00,70.9,62.6,29.89,NE,45,2.0,4.0,75,0.00,,,0.00,meteohub,2013-07-09 03:56:00,
2013-07-08 21:01:00,70.7,62.4,29.90,NE,45,0.0,4.0,75,0.00,,,0.00,meteohub,2013-07-09 04:01:00,
2013-07-08 21:02:00,70.7,62.4,29.90,NE,45,2.0,4.0,75,0.00,,,0.00,meteohub,2013-07-09 04:02:00,
2013-07-08 21:03:00,70.7,62.4,29.90,NE,45,1.0,4.0,75,0.00,,,0.00,meteohub,2013-07-09 04:03:00,
2013-07-08 21:08:00,70.5,62.6,29.91,NE,45,2.0,2.0,76,0.00,,,0.00,meteohub,2013-07-09 04:08:00,
2013-07-08 21:13:00,70.2,62.6,29.90,NE,45,2.0,2.0,77,0.00,,,0.00,meteohub,2013-07-09 04:13:00,
2013-07-08 21:18:00,70.0,62.1,29.91,NE,45,2.0,2.0,76,0.00,,,0.00,meteohub,2013-07-09 04:18:00,
2013-07-08 21:23:00,69.8,62.2,29.90,NNE,23,1.0,2.0,77,0.00,,,0.00,meteohub,2013-07-09 04:23:00,
2013-07-08 21:28:00,69.8,62.2,29.91,NNE,23,2.0,3.0,77,0.00,,,0.00,meteohub,2013-07-09 04:28:00,
2013-07-08 21:33:00,69.6,62.1,29.91,NNE,23,0.0,3.0,77,0.00,,,0.00,meteohub,2013-07-09 04:33:00,
2013-07-08 21:38:00,69.4,62.2,29.91,NNE,23,0.0,3.0,78,0.00,,,0.00,meteohub,2013-07-09 04:38:00,
2013-07-08 21:43:00,69.3,61.7,29.91,NNE,23,0.0,2.0,77,0.00,,,0.00,meteohub,2013-07-09 04:43:00,
2013-07-08 21:48:00,69.3,62.8,29.92,NNE,23,2.0,2.0,80,0.00,,,0.00,meteohub,2013-07-09 04:48:00,
2013-07-08 21:53:00,69.4,64.4,29.92,North,0,2.0,2.0,84,0.00,,,0.00,meteohub,2013-07-09 04:53:00,
2013-07-08 21:58:00,69.4,64.8,29.92,West,270,2.0,2.0,85,0.00,,,0.00,meteohub,2013-07-09 04:58:00,
2013-07-08 22:03:00,69.3,64.6,29.92,West,270,3.0,3.0,85,0.00,,,0.00,meteohub,2013-07-09 05:03:00,
2013-07-08 22:08:00,69.1,64.4,29.93,West,270,2.0,4.0,85,0.00,,,0.00,meteohub,2013-07-09 05:08:00,
2013-07-08 22:13:00,68.9,64.6,29.92,NW,315,2.0,4.0,86,0.00,,,0.00,meteohub,2013-07-09 05:13:00,
2013-07-08 22:18:00,68.7,64.0,29.92,NW,315,2.0,4.0,85,0.00,,,0.00,meteohub,2013-07-09 05:18:00,
2013-07-08 22:23:00,68.7,64.0,29.92,NW,315,0.0,4.0,85,0.00,,,0.00,meteohub,2013-07-09 05:23:00,
2013-07-08 22:28:00,68.5,64.2,29.92,NW,315,0.0,4.0,86,0.00,,,0.00,meteohub,2013-07-09 05:28:00,
2013-07-08 22:33:00,68.5,64.6,29.93,NW,315,3.0,3.0,87,0.00,,,0.00,meteohub,2013-07-09 05:33:00,
2013-07-08 22:38:00,68.5,64.6,29.93,NW,315,1.0,2.0,87,0.00,,,0.00,meteohub,2013-07-09 05:38:00,
2013-07-08 22:43:00,68.4,64.4,29.93,NW,315,1.0,3.0,87,0.00,,,0.00,meteohub,2013-07-09 05:43:00,
2013-07-08 22:48:00,68.2,64.4,29.93,NW,315,2.0,3.0,88,0.00,,,0.00,meteohub,2013-07-09 05:48:00,
2013-07-08 22:53:00,68.0,64.0,29.93,NW,315,1.0,2.0,87,0.00,,,0.00,meteohub,2013-07-09 05:53:00,
2013-07-08 22:58:00,67.6,63.7,29.93,NW,315,0.0,2.0,87,0.00,,,0.00,meteohub,2013-07-09 05:58:00,
2013-07-08 23:03:00,67.1,63.1,29.93,NW,315,0.0,2.0,87,0.00,,,0.00,meteohub,2013-07-09 06:03:00,
2013-07-08 23:08:00,66.9,63.3,29.93,NW,315,0.0,2.0,88,0.00,,,0.00,meteohub,2013-07-09 06:08:00,
2013-07-08 23:13:00,66.7,63.3,29.93,NW,315,0.0,1.0,89,0.00,,,0.00,meteohub,2013-07-09 06:13:00,
2013-07-08 23:18:00,66.7,64.0,29.94,West,270,2.0,2.0,91,0.00,,,0.00,meteohub,2013-07-09 06:18:00,
2013-07-08 23:23:00,66.7,64.0,29.94,West,270,3.0,3.0,91,0.00,,,0.00,meteohub,2013-07-09 06:23:00,
2013-07-08 23:28:00,66.7,64.0,29.94,West,270,2.0,3.0,91,0.00,,,0.00,meteohub,2013-07-09 06:28:00,
2013-07-08 23:34:00,66.7,64.0,29.94,West,270,1.0,3.0,91,0.00,,,0.00,meteohub,2013-07-09 06:34:00,
2013-07-08 23:39:00,66.6,64.2,29.94,West,270,2.0,3.0,92,0.00,,,0.00,meteohub,2013-07-09 06:39:00,
2013-07-08 23:44:00,66.4,63.7,29.93,West,270,2.0,3.0,91,0.00,,,0.00,meteohub,2013-07-09 06:44:00,
2013-07-08 23:49:00,66.2,63.9,29.94,West,270,1.0,2.0,92,0.00,,,0.00,meteohub,2013-07-09 06:49:00,
2013-07-08 23:54:00,66.2,64.0,29.94,West,270,2.0,2.0,93,0.00,,,0.00,meteohub,2013-07-09 06:54:00,
2013-07-08 23:59:00,66.0,63.7,29.94,West,270,1.0,2.0,92,0.00,,,0.00,meteohub,2013-07-09 06:59:00,